Time;durP1;ratioP1;P1;durP2;ratioP2;P2;SDS_P1;SDS_P2;PMS_P1;PMS_P2;Temp;Humidity;BMP_temperature;BMP_pressure;BME280_temperature;BME280_humidity;BME280_pressure;Samples;Min_cycle;Max_cycle;Signal;HPM_P1;HPM_P2
2023/12/12 00:01:31;;;;;;;16.25;3.85;;;;;11.50;97960.00;;;;5052474;28;20079;-66
2023/12/12 00:03:58;;;;;;;21.35;4.85;;;;;11.50;97968.00;;;;5052557;28;20064;-64
2023/12/12 00:06:25;;;;;;;23.40;5.20;;;;;11.50;97964.00;;;;5041020;28;20574;-61
2023/12/12 00:08:51;;;;;;;15.10;5.03;;;;;11.50;97959.00;;;;5032509;28;20049;-63
2023/12/12 00:11:18;;;;;;;20.65;4.85;;;;;11.40;97960.00;;;;5032586;28;20107;-61
2023/12/12 00:13:45;;;;;;;14.70;4.07;;;;;11.40;97950.00;;;;5033510;28;20068;-61
2023/12/12 00:16:11;;;;;;;20.98;5.47;;;;;11.40;97948.00;;;;5033425;28;20125;-61
2023/12/12 00:18:38;;;;;;;16.42;4.13;;;;;11.40;97953.00;;;;5031410;28;20041;-62
2023/12/12 00:21:05;;;;;;;17.00;4.25;;;;;11.40;97948.00;;;;5032289;28;20076;-61
2023/12/12 00:23:32;;;;;;;18.95;4.25;;;;;11.40;97958.00;;;;5031553;28;20048;-63
2023/12/12 00:25:59;;;;;;;24.10;7.65;;;;;11.40;97964.00;;;;5036236;28;20179;-62
2023/12/12 00:28:25;;;;;;;23.50;5.68;;;;;11.30;97964.00;;;;5034678;28;20494;-62
2023/12/12 00:30:52;;;;;;;22.02;6.20;;;;;11.30;97966.00;;;;5032548;28;20041;-62
2023/12/12 00:33:19;;;;;;;16.00;5.50;;;;;11.30;97976.00;;;;5031943;28;20053;-64
2023/12/12 00:35:46;;;;;;;18.08;4.70;;;;;11.30;97974.00;;;;5030081;28;20080;-61
2023/12/12 00:38:12;;;;;;;20.58;5.68;;;;;11.20;97967.00;;;;5031525;28;20121;-63
2023/12/12 00:40:39;;;;;;;24.00;6.20;;;;;11.20;97972.00;;;;5031709;28;20513;-62
2023/12/12 00:43:06;;;;;;;27.13;6.05;;;;;11.20;97968.00;;;;5031774;28;20071;-62
2023/12/12 00:45:32;;;;;;;13.52;3.83;;;;;11.20;97963.00;;;;5030856;28;20041;-62
2023/12/12 00:47:59;;;;;;;18.85;4.38;;;;;11.20;97965.00;;;;5031598;28;20048;-63
2023/12/12 00:50:25;;;;;;;20.35;5.25;;;;;11.20;97963.00;;;;5031760;28;20457;-62
2023/12/12 00:52:52;;;;;;;21.00;5.10;;;;;11.20;97959.00;;;;5030153;28;20042;-62
2023/12/12 00:55:19;;;;;;;17.70;4.30;;;;;11.20;97972.00;;;;5032724;28;20041;-61
2023/12/12 00:57:45;;;;;;;16.45;4.20;;;;;11.20;97962.00;;;;5034971;28;20041;-63
2023/12/12 01:00:12;;;;;;;16.55;4.47;;;;;11.20;97957.00;;;;5035028;28;20049;-62
2023/12/12 01:02:39;;;;;;;20.42;5.07;;;;;11.10;97967.00;;;;5034800;28;20053;-63
2023/12/12 01:05:06;;;;;;;25.63;4.45;;;;;11.10;97961.00;;;;5034018;28;20120;-62
2023/12/12 01:07:33;;;;;;;20.58;4.60;;;;;11.10;97963.00;;;;5034354;28;20069;-62
2023/12/12 01:10:00;;;;;;;18.23;3.60;;;;;11.10;97954.00;;;;5034861;28;20402;-63
2023/12/12 01:12:28;;;;;;;17.42;5.05;;;;;11.10;97949.00;;;;5034576;28;20052;-62
2023/12/12 01:14:58;;;;;;;16.58;3.70;;;;;11.10;97956.00;;;;5032786;28;20053;-63
2023/12/12 01:17:28;;;;;;;16.10;4.72;;;;;11.10;97954.00;;;;5034722;28;20501;-62
2023/12/12 01:19:56;;;;;;;18.02;4.30;;;;;11.10;97947.00;;;;5033217;28;20107;-64
2023/12/12 01:22:22;;;;;;;21.70;3.90;;;;;11.10;97940.00;;;;5034542;28;20038;-63
2023/12/12 01:24:49;;;;;;;19.98;4.13;;;;;11.10;97941.00;;;;5016086;28;20099;-62
2023/12/12 01:27:15;;;;;;;18.15;4.63;;;;;11.10;97945.00;;;;5034272;28;20045;-65
2023/12/12 01:29:42;;;;;;;13.80;4.15;;;;;11.10;97943.00;;;;5016664;28;20061;-63
2023/12/12 01:32:09;;;;;;;18.38;4.13;;;;;11.20;97939.00;;;;5034172;28;20045;-65
2023/12/12 01:34:35;;;;;;;17.10;4.60;;;;;11.20;97935.00;;;;5033404;28;20053;-65
2023/12/12 01:37:02;;;;;;;18.75;4.78;;;;;11.20;97935.00;;;;5032765;28;20053;-64
2023/12/12 01:39:29;;;;;;;15.07;3.72;;;;;11.20;97943.00;;;;5034068;28;20117;-65
2023/12/12 01:41:56;;;;;;;17.48;4.25;;;;;11.10;97941.00;;;;5033966;28;20140;-65
2023/12/12 01:44:22;;;;;;;22.02;4.47;;;;;11.10;97945.00;;;;5032252;28;20049;-65
2023/12/12 01:46:50;;;;;;;13.30;3.88;;;;;11.10;97957.00;;;;5032551;28;20049;-65
2023/12/12 01:49:17;;;;;;;16.05;3.90;;;;;11.00;97940.00;;;;5033803;28;20049;-64
2023/12/12 01:51:45;;;;;;;17.80;5.05;;;;;11.00;97942.00;;;;5033924;28;20052;-65
2023/12/12 01:54:15;;;;;;;15.27;4.00;;;;;11.00;97940.00;;;;5031941;28;20417;-65
2023/12/12 01:56:45;;;;;;;19.48;4.43;;;;;11.00;97945.00;;;;5033727;28;20112;-65
2023/12/12 01:59:12;;;;;;;22.70;5.35;;;;;11.00;97935.00;;;;5033752;28;20056;-65
2023/12/12 02:01:39;;;;;;;21.00;4.50;;;;;11.00;97935.00;;;;5033810;28;20045;-65
2023/12/12 02:04:07;;;;;;;19.38;4.50;;;;;11.00;97933.00;;;;5031501;28;20141;-65
2023/12/12 02:06:33;;;;;;;23.35;5.15;;;;;11.00;97924.00;;;;5032117;28;20053;-65
2023/12/12 02:09:00;;;;;;;17.77;4.97;;;;;11.10;97934.00;;;;5033414;28;20045;-65
2023/12/12 02:11:27;;;;;;;18.73;5.13;;;;;11.10;97932.00;;;;5033542;28;20041;-65
2023/12/12 02:13:53;;;;;;;17.83;4.55;;;;;11.10;97933.00;;;;5032985;28;20046;-63
2023/12/12 02:16:20;;;;;;;15.73;4.97;;;;;11.10;97929.00;;;;5033259;28;20045;-64
2023/12/12 02:18:46;;;;;;;16.23;4.80;;;;;11.10;97930.00;;;;5033549;28;20045;-64
2023/12/12 02:21:20;;;;;;;17.08;5.13;;;;;11.10;97930.00;;;;5033370;28;20060;-65
2023/12/12 02:23:47;;;;;;;24.98;5.65;;;;;11.10;97921.00;;;;5033143;28;20053;-65
2023/12/12 02:26:14;;;;;;;20.23;4.90;;;;;11.00;97920.00;;;;5033244;28;20041;-64
2023/12/12 02:28:40;;;;;;;16.63;4.13;;;;;11.00;97923.00;;;;5032996;28;20380;-64
2023/12/12 02:31:09;;;;;;;19.75;5.50;;;;;11.00;97922.00;;;;5033005;28;20045;-64
2023/12/12 02:33:35;;;;;;;15.85;4.72;;;;;11.00;97923.00;;;;5032464;28;20049;-64
2023/12/12 02:36:02;;;;;;;16.25;4.68;;;;;10.90;97921.00;;;;5033261;28;20161;-63
2023/12/12 02:38:29;;;;;;;23.15;5.53;;;;;11.00;97925.00;;;;5033328;28;20047;-64
2023/12/12 02:40:55;;;;;;;18.42;4.60;;;;;10.90;97924.00;;;;5032178;28;20445;-64
2023/12/12 02:43:22;;;;;;;17.92;4.88;;;;;11.00;97924.00;;;;5032876;28;20052;-61
2023/12/12 02:45:48;;;;;;;16.00;4.72;;;;;10.90;97910.00;;;;5033129;28;20045;-63
2023/12/12 02:48:16;;;;;;;21.33;4.53;;;;;10.90;97915.00;;;;5032816;28;20045;-64
2023/12/12 02:50:43;;;;;;;24.02;5.13;;;;;11.00;97902.00;;;;5033139;28;20041;-64
2023/12/12 02:53:09;;;;;;;22.35;5.43;;;;;11.00;97911.00;;;;5031672;28;20132;-64
2023/12/12 02:55:36;;;;;;;21.33;5.38;;;;;11.00;97902.00;;;;5031948;28;20494;-65
2023/12/12 02:58:02;;;;;;;23.67;4.60;;;;;11.00;97901.00;;;;5014942;28;20057;-64
2023/12/12 03:00:29;;;;;;;21.25;4.97;;;;;11.10;97899.00;;;;5032643;28;20049;-64
2023/12/12 03:02:56;;;;;;;20.70;4.95;;;;;11.10;97894.00;;;;5031293;28;20134;-64
2023/12/12 03:05:22;;;;;;;17.92;4.90;;;;;11.10;97895.00;;;;5030992;28;20069;-64
2023/12/12 03:07:49;;;;;;;25.48;5.53;;;;;11.10;97900.00;;;;5032241;28;20049;-64
2023/12/12 03:10:15;;;;;;;19.00;4.93;;;;;11.10;97895.00;;;;5031010;28;20185;-64
2023/12/12 03:12:43;;;;;;;21.27;5.28;;;;;11.00;97889.00;;;;5032319;28;20060;-64
2023/12/12 03:15:10;;;;;;;15.10;4.80;;;;;11.00;97888.00;;;;5031782;28;20475;-64
2023/12/12 03:17:36;;;;;;;18.67;4.72;;;;;10.90;97883.00;;;;5031657;28;20053;-65
2023/12/12 03:20:03;;;;;;;17.70;4.70;;;;;10.90;97879.00;;;;5032286;28;20504;-64
2023/12/12 03:22:30;;;;;;;22.92;5.32;;;;;10.90;97889.00;;;;5032180;28;20480;-64
2023/12/12 03:24:57;;;;;;;22.02;5.55;;;;;11.00;97881.00;;;;5031534;28;20045;-64
2023/12/12 03:27:23;;;;;;;19.80;4.93;;;;;11.00;97883.00;;;;5032152;28;20084;-65
2023/12/12 03:29:50;;;;;;;19.27;6.13;;;;;11.00;97875.00;;;;5032198;28;20048;-64
2023/12/12 03:32:17;;;;;;;18.02;4.90;;;;;11.00;97879.00;;;;5032729;28;20047;-64
2023/12/12 03:34:43;;;;;;;23.08;5.32;;;;;11.00;97884.00;;;;5031678;28;20128;-64
2023/12/12 03:37:10;;;;;;;18.73;4.97;;;;;11.00;97877.00;;;;5032042;28;20041;-65
2023/12/12 03:39:37;;;;;;;18.00;5.65;;;;;11.00;97873.00;;;;5030852;28;20037;-64
2023/12/12 03:42:04;;;;;;;18.38;5.13;;;;;11.00;97867.00;;;;5032505;28;20487;-64
2023/12/12 03:44:30;;;;;;;28.02;5.00;;;;;11.00;97878.00;;;;5030288;28;20045;-64
2023/12/12 03:46:57;;;;;;;16.23;4.22;;;;;11.00;97878.00;;;;5032073;28;20144;-64
2023/12/12 03:49:24;;;;;;;24.88;5.57;;;;;11.00;97861.00;;;;5030726;28;20049;-64
2023/12/12 03:51:50;;;;;;;20.85;4.95;;;;;11.00;97864.00;;;;5032802;28;20046;-64
2023/12/12 03:54:17;;;;;;;22.45;5.28;;;;;11.10;97864.00;;;;5031671;28;20050;-63
2023/12/12 03:56:43;;;;;;;20.25;4.88;;;;;11.10;97856.00;;;;5033488;28;20087;-63
2023/12/12 03:59:10;;;;;;;17.95;4.60;;;;;11.00;97848.00;;;;5033555;28;20047;-64
2023/12/12 04:01:36;;;;;;;22.02;6.43;;;;;10.90;97848.00;;;;5033776;28;20065;-64
2023/12/12 04:04:03;;;;;;;22.50;5.55;;;;;10.70;97846.00;;;;5033077;28;20498;-63
2023/12/12 04:06:30;;;;;;;20.00;5.00;;;;;10.50;97844.00;;;;5032288;28;20399;-64
2023/12/12 04:08:56;;;;;;;19.60;5.32;;;;;10.40;97847.00;;;;5032984;28;20045;-64
2023/12/12 04:11:23;;;;;;;24.25;5.32;;;;;10.40;97847.00;;;;5033278;28;20038;-64
2023/12/12 04:13:51;;;;;;;23.25;5.60;;;;;10.40;97858.00;;;;5031937;28;20049;-64
2023/12/12 04:16:17;;;;;;;18.10;5.00;;;;;10.50;97863.00;;;;5032074;28;20045;-63
2023/12/12 04:18:44;;;;;;;17.42;5.15;;;;;10.60;97863.00;;;;5031840;28;20053;-63
2023/12/12 04:21:11;;;;;;;23.48;5.85;;;;;10.70;97857.00;;;;5032425;28;20486;-64
2023/12/12 04:23:42;;;;;;;23.88;5.47;;;;;10.70;97865.00;;;;5031645;28;20069;-64
2023/12/12 04:26:09;;;;;;;18.17;4.93;;;;;10.60;97859.00;;;;5031875;28;20045;-64
2023/12/12 04:28:36;;;;;;;23.85;5.85;;;;;10.60;97851.00;;;;5035616;28;20049;-64
2023/12/12 04:31:03;;;;;;;21.00;5.70;;;;;10.60;97858.00;;;;5036352;28;20042;-64
2023/12/12 04:33:30;;;;;;;19.58;5.47;;;;;10.80;97848.00;;;;5035372;28;20041;-64
2023/12/12 04:35:56;;;;;;;15.38;5.10;;;;;10.80;97850.00;;;;5035307;28;20107;-64
2023/12/12 04:38:23;;;;;;;19.13;5.93;;;;;10.80;97859.00;;;;5036575;28;20451;-65
2023/12/12 04:40:49;;;;;;;15.68;6.18;;;;;10.80;97854.00;;;;5036643;28;20097;-64
2023/12/12 04:43:16;;;;;;;19.00;5.65;;;;;10.80;97844.00;;;;5038070;28;20430;-65
2023/12/12 04:45:43;;;;;;;17.30;6.10;;;;;10.80;97842.00;;;;5035196;28;20049;-64
2023/12/12 04:48:09;;;;;;;14.18;5.75;;;;;10.90;97843.00;;;;5036889;28;20490;-64
2023/12/12 04:50:36;;;;;;;20.23;6.72;;;;;11.00;97842.00;;;;5036573;28;20068;-64
2023/12/12 04:53:03;;;;;;;22.92;7.05;;;;;11.00;97827.00;;;;5036197;28;20080;-63
2023/12/12 04:55:30;;;;;;;16.65;5.78;;;;;11.00;97825.00;;;;5035016;28;20042;-64
2023/12/12 04:57:57;;;;;;;15.48;5.85;;;;;11.00;97824.00;;;;5035469;28;20406;-64
2023/12/12 05:00:23;;;;;;;19.58;6.05;;;;;11.10;97825.00;;;;5035377;28;20449;-64
2023/12/12 05:02:50;;;;;;;24.70;6.95;;;;;11.10;97830.00;;;;5033979;28;20458;-64
2023/12/12 05:05:16;;;;;;;21.50;6.30;;;;;11.10;97833.00;;;;5034872;28;20038;-65
2023/12/12 05:07:43;;;;;;;21.63;6.00;;;;;11.00;97841.00;;;;5035160;28;20068;-63
2023/12/12 05:10:10;;;;;;;22.15;6.20;;;;;11.10;97824.00;;;;5035833;28;20434;-64
2023/12/12 05:12:36;;;;;;;17.13;5.22;;;;;11.10;97816.00;;;;5035257;28;20451;-65
2023/12/12 05:15:04;;;;;;;13.50;5.80;;;;;11.20;97818.00;;;;5035135;28;20099;-65
2023/12/12 05:17:31;;;;;;;16.33;5.75;;;;;11.20;97814.00;;;;5035588;28;20556;-66
2023/12/12 05:20:00;;;;;;;11.73;5.18;;;;;11.20;97817.00;;;;5034254;28;20041;-65
2023/12/12 05:22:27;;;;;;;22.48;6.05;;;;;11.20;97803.00;;;;5033964;28;20107;-64
2023/12/12 05:24:54;;;;;;;16.80;5.60;;;;;11.30;97801.00;;;;5034699;28;20095;-63
2023/12/12 05:27:20;;;;;;;15.88;5.40;;;;;11.20;97808.00;;;;5034354;28;20567;-64
2023/12/12 05:29:47;;;;;;;12.65;5.40;;;;;11.20;97792.00;;;;5034822;28;20514;-64
2023/12/12 05:32:14;;;;;;;17.25;5.55;;;;;11.10;97800.00;;;;5034672;28;20527;-64
2023/12/12 05:34:40;;;;;;;13.52;5.20;;;;;11.10;97800.00;;;;5035043;28;20037;-64
2023/12/12 05:37:10;;;;;;;17.60;6.80;;;;;11.10;97795.00;;;;5035448;28;20047;-66
2023/12/12 05:39:36;;;;;;;19.98;6.75;;;;;11.00;97793.00;;;;5032628;28;20049;-65
2023/12/12 05:42:03;;;;;;;18.17;6.05;;;;;10.70;97786.00;;;;5034971;28;20045;-65
2023/12/12 05:44:31;;;;;;;20.42;6.43;;;;;10.60;97778.00;;;;5033837;28;20099;-65
2023/12/12 05:46:58;;;;;;;22.52;6.63;;;;;10.50;97787.00;;;;5034767;28;20490;-65
2023/12/12 05:49:25;;;;;;;20.10;9.88;;;;;10.50;97784.00;;;;5034721;28;20510;-65
2023/12/12 05:51:52;;;;;;;23.55;9.35;;;;;10.60;97788.00;;;;5033220;28;20478;-65
2023/12/12 05:54:18;;;;;;;20.38;6.90;;;;;10.60;97787.00;;;;5032874;28;20042;-66
2023/12/12 05:56:47;;;;;;;21.58;9.88;;;;;10.50;97790.00;;;;5035667;28;20045;-64
2023/12/12 05:59:14;;;;;;;17.88;7.28;;;;;10.60;97788.00;;;;5033883;28;20498;-65
2023/12/12 06:01:42;;;;;;;22.88;7.47;;;;;10.50;97790.00;;;;5035065;28;20486;-64
2023/12/12 06:04:12;;;;;;;26.42;7.10;;;;;10.50;97786.00;;;;5034312;28;20095;-65
2023/12/12 06:06:41;;;;;;;15.70;6.00;;;;;10.40;97779.00;;;;5034801;28;20045;-64
2023/12/12 06:09:12;;;;;;;26.75;7.65;;;;;10.30;97761.00;;;;5032779;28;20045;-65
2023/12/12 06:11:40;;;;;;;17.30;7.50;;;;;10.30;97758.00;;;;5034069;28;20079;-65
2023/12/12 06:14:07;;;;;;;23.55;6.13;;;;;10.10;97754.00;;;;5033206;28;20096;-65
2023/12/12 06:16:34;;;;;;;22.20;5.75;;;;;10.10;97734.00;;;;5033906;28;20049;-64
2023/12/12 06:19:04;;;;;;;20.83;6.63;;;;;10.10;97734.00;;;;5033613;28;20042;-65
2023/12/12 06:21:32;;;;;;;16.27;5.68;;;;;10.20;97736.00;;;;5033773;28;20069;-65
2023/12/12 06:24:01;;;;;;;21.08;6.10;;;;;10.20;97750.00;;;;5033233;28;20490;-65
2023/12/12 06:26:29;;;;;;;16.13;6.13;;;;;10.20;97743.00;;;;5015916;28;20049;-64
2023/12/12 06:28:56;;;;;;;16.83;6.13;;;;;10.20;97742.00;;;;5032203;28;20041;-63
2023/12/12 06:31:23;;;;;;;19.63;6.38;;;;;10.10;97740.00;;;;5033708;28;20442;-64
2023/12/12 06:33:51;;;;;;;26.80;7.43;;;;;10.10;97739.00;;;;5032975;28;20042;-65
2023/12/12 06:36:18;;;;;;;17.98;7.10;;;;;10.10;97730.00;;;;5033132;28;20084;-65
2023/12/12 06:38:45;;;;;;;20.15;5.78;;;;;10.10;97735.00;;;;5033107;28;20102;-65
2023/12/12 06:41:12;;;;;;;19.30;5.60;;;;;10.00;97731.00;;;;5032193;28;20479;-63
2023/12/12 06:43:38;;;;;;;18.67;6.18;;;;;10.00;97727.00;;;;5033226;28;20499;-64
2023/12/12 06:46:05;;;;;;;22.00;6.40;;;;;10.10;97727.00;;;;5033338;28;20558;-64
2023/12/12 06:48:32;;;;;;;20.65;6.18;;;;;10.10;97726.00;;;;5033020;28;20091;-65
2023/12/12 06:50:58;;;;;;;16.25;6.03;;;;;10.10;97725.00;;;;5031199;28;20276;-64
2023/12/12 06:53:25;;;;;;;17.45;5.75;;;;;10.10;97731.00;;;;5031848;28;20049;-63
2023/12/12 06:55:52;;;;;;;15.43;5.72;;;;;10.00;97727.00;;;;5033116;28;20045;-64
2023/12/12 06:58:21;;;;;;;14.05;5.28;;;;;10.00;97734.00;;;;5031558;28;20052;-63
2023/12/12 07:00:48;;;;;;;19.33;5.97;;;;;10.10;97728.00;;;;5031531;28;20461;-65
2023/12/12 07:03:15;;;;;;;13.32;5.65;;;;;10.10;97733.00;;;;5032615;28;20072;-64
2023/12/12 07:05:41;;;;;;;16.80;5.88;;;;;10.10;97717.00;;;;5031971;28;20045;-64
2023/12/12 07:08:08;;;;;;;18.30;6.50;;;;;10.00;97714.00;;;;5032637;28;20119;-64
2023/12/12 07:10:35;;;;;;;18.10;5.82;;;;;10.00;97717.00;;;;5032586;28;20053;-64
2023/12/12 07:13:01;;;;;;;16.75;6.55;;;;;10.00;97720.00;;;;5033117;28;20410;-64
2023/12/12 07:15:28;;;;;;;17.85;5.18;;;;;10.10;97710.00;;;;5032545;28;20049;-64
2023/12/12 07:17:55;;;;;;;16.73;5.00;;;;;10.10;97701.00;;;;5032791;28;20077;-65
2023/12/12 07:20:22;;;;;;;16.00;5.40;;;;;10.10;97691.00;;;;5032774;28;20041;-63
2023/12/12 07:22:48;;;;;;;18.30;5.30;;;;;10.10;97688.00;;;;5032853;28;20056;-64
2023/12/12 07:25:15;;;;;;;17.23;5.82;;;;;10.00;97690.00;;;;5032063;28;20056;-64
2023/12/12 07:27:42;;;;;;;19.73;5.53;;;;;10.10;97704.00;;;;5032699;28;20136;-65
2023/12/12 07:30:10;;;;;;;16.42;4.70;;;;;10.30;97714.00;;;;5032522;28;20128;-64
2023/12/12 07:32:38;;;;;;;12.63;5.15;;;;;10.50;97713.00;;;;5032307;28;20045;-64
2023/12/12 07:35:05;;;;;;;17.45;5.32;;;;;10.50;97718.00;;;;5030355;28;20132;-63
2023/12/12 07:37:31;;;;;;;20.70;5.72;;;;;10.30;97709.00;;;;5031969;28;20099;-65
2023/12/12 07:39:59;;;;;;;18.00;5.30;;;;;10.20;97693.00;;;;5030732;28;20041;-64
2023/12/12 07:42:25;;;;;;;22.38;5.47;;;;;10.20;97681.00;;;;5031829;28;20441;-65
2023/12/12 07:44:57;;;;;;;17.88;5.35;;;;;10.20;97671.00;;;;5031157;28;20053;-62
2023/12/12 07:47:24;;;;;;;12.68;5.00;;;;;10.20;97675.00;;;;5030672;28;20049;-63
2023/12/12 07:50:08;;;;;;;17.70;5.47;;;;;10.30;97692.00;;;;5031813;28;20045;-65
2023/12/12 07:52:35;;;;;;;13.82;5.32;;;;;10.40;97704.00;;;;5031617;28;20041;-64
2023/12/12 07:55:02;;;;;;;14.18;5.68;;;;;10.50;97690.00;;;;5031412;28;20136;-64
2023/12/12 07:57:28;;;;;;;19.50;5.80;;;;;10.40;97684.00;;;;5032099;28;20100;-65
2023/12/12 07:59:55;;;;;;;19.20;5.13;;;;;10.30;97680.00;;;;5031767;28;20494;-65
2023/12/12 08:02:22;;;;;;;16.92;4.68;;;;;10.30;97677.00;;;;5031730;28;20482;-65
2023/12/12 08:04:48;;;;;;;18.10;5.13;;;;;10.30;97676.00;;;;5035383;28;20047;-65
2023/12/12 08:07:16;;;;;;;15.73;4.88;;;;;10.40;97681.00;;;;5035823;28;20413;-64
2023/12/12 08:09:43;;;;;;;16.05;5.30;;;;;10.50;97654.00;;;;5034726;28;20056;-65
2023/12/12 08:12:09;;;;;;;15.90;5.10;;;;;10.50;97657.00;;;;5035607;28;20124;-64
2023/12/12 08:14:36;;;;;;;13.18;4.70;;;;;10.50;97669.00;;;;5035191;28;20048;-64
2023/12/12 08:17:06;;;;;;;18.38;5.47;;;;;10.80;97680.00;;;;5035723;28;20049;-64
2023/12/12 08:19:33;;;;;;;22.50;6.43;;;;;10.80;97677.00;;;;5035768;28;20041;-65
2023/12/12 08:22:00;;;;;;;22.08;5.22;;;;;10.90;97664.00;;;;5034230;28;20143;-64
2023/12/12 08:24:27;;;;;;;15.52;5.25;;;;;10.80;97648.00;;;;5035105;28;20041;-65
2023/12/12 08:26:54;;;;;;;13.13;4.85;;;;;10.70;97655.00;;;;5034250;28;20100;-65
2023/12/12 08:29:20;;;;;;;11.55;4.32;;;;;10.70;97652.00;;;;5035339;28;20049;-65
2023/12/12 08:31:47;;;;;;;12.02;4.10;;;;;10.70;97648.00;;;;5033918;28;20128;-65
2023/12/12 08:34:13;;;;;;;11.15;4.78;;;;;10.70;97641.00;;;;5033490;28;20042;-65
2023/12/12 08:36:40;;;;;;;12.40;3.53;;;;;10.70;97632.00;;;;5035377;28;20042;-64
2023/12/12 08:39:07;;;;;;;9.32;3.67;;;;;10.70;97620.00;;;;5035265;28;20049;-62
2023/12/12 08:41:37;;;;;;;12.38;4.13;;;;;10.60;97629.00;;;;5035722;28;20037;-62
2023/12/12 08:44:04;;;;;;;14.65;4.13;;;;;10.70;97636.00;;;;5034555;28;20128;-62
2023/12/12 08:46:30;;;;;;;13.05;5.07;;;;;10.70;97642.00;;;;5035141;28;20518;-63
2023/12/12 08:48:57;;;;;;;11.77;4.22;;;;;10.60;97648.00;;;;5035194;28;20053;-62
2023/12/12 08:51:25;;;;;;;14.13;4.85;;;;;10.70;97632.00;;;;5033875;28;20091;-62
2023/12/12 08:53:52;;;;;;;15.63;5.35;;;;;10.70;97630.00;;;;5034357;28;20121;-63
2023/12/12 08:56:18;;;;;;;11.48;3.67;;;;;10.70;97631.00;;;;5034817;28;20107;-62
2023/12/12 08:58:50;;;;;;;13.23;5.55;;;;;10.70;97622.00;;;;5033865;28;20090;-62
2023/12/12 09:01:17;;;;;;;13.75;3.80;;;;;10.70;97613.00;;;;5034709;28;20060;-63
2023/12/12 09:03:44;;;;;;;13.50;4.00;;;;;10.70;97617.00;;;;5034218;28;20045;-62
2023/12/12 09:06:11;;;;;;;10.02;3.72;;;;;10.70;97612.00;;;;5034693;28;20049;-62
2023/12/12 09:08:42;;;;;;;8.90;3.28;;;;;10.70;97602.00;;;;5034612;28;20522;-62
2023/12/12 09:11:12;;;;;;;9.52;3.92;;;;;10.70;97609.00;;;;5034656;28;20095;-62
2023/12/12 09:13:42;;;;;;;9.43;3.10;;;;;10.80;97610.00;;;;5034348;28;20049;-60
2023/12/12 09:16:09;;;;;;;14.05;3.80;;;;;10.70;97604.00;;;;5032492;28;20046;-62
2023/12/12 09:18:36;;;;;;;10.32;3.35;;;;;10.60;97590.00;;;;5034584;28;20077;-62
2023/12/12 09:21:03;;;;;;;6.13;3.08;;;;;10.60;97587.00;;;;5034792;28;20037;-64
2023/12/12 09:23:31;;;;;;;9.50;3.00;;;;;10.70;97588.00;;;;5033831;28;20394;-62
2023/12/12 09:25:57;;;;;;;7.65;3.22;;;;;10.70;97588.00;;;;5034372;28;20037;-63
2023/12/12 09:28:24;;;;;;;6.43;3.20;;;;;10.70;97584.00;;;;5034300;28;20057;-63
2023/12/12 09:30:50;;;;;;;8.55;3.10;;;;;10.80;97588.00;;;;5034208;28;20046;-62
2023/12/12 09:33:17;;;;;;;10.00;3.03;;;;;10.80;97579.00;;;;5034352;28;20041;-62
2023/12/12 09:35:44;;;;;;;11.27;2.80;;;;;10.90;97578.00;;;;5032567;28;20581;-62
2023/12/12 09:38:10;;;;;;;7.45;2.70;;;;;10.90;97570.00;;;;5034015;28;20091;-62
2023/12/12 09:40:39;;;;;;;5.60;2.55;;;;;11.00;97546.00;;;;5034272;28;20128;-64
2023/12/12 09:43:10;;;;;;;6.25;2.63;;;;;11.00;97533.00;;;;5034113;28;20599;-64
2023/12/12 09:45:39;;;;;;;12.30;3.30;;;;;11.00;97533.00;;;;5033465;28;20042;-64
2023/12/12 09:48:06;;;;;;;5.72;2.63;;;;;11.00;97523.00;;;;5032751;28;20474;-64
2023/12/12 09:50:34;;;;;;;5.32;2.45;;;;;11.10;97534.00;;;;5034138;28;20037;-64
2023/12/12 09:53:01;;;;;;;7.93;2.40;;;;;11.20;97543.00;;;;5032683;28;20503;-64
2023/12/12 09:55:29;;;;;;;7.40;2.75;;;;;11.30;97540.00;;;;5033395;28;20049;-64
2023/12/12 09:57:57;;;;;;;4.55;2.25;;;;;11.40;97528.00;;;;5033952;28;20128;-62
2023/12/12 10:00:24;;;;;;;4.88;2.92;;;;;11.40;97534.00;;;;5032926;28;20438;-64
2023/12/12 10:02:55;;;;;;;4.80;2.20;;;;;11.40;97541.00;;;;5032642;28;20042;-63
2023/12/12 10:05:22;;;;;;;9.10;2.85;;;;;11.40;97529.00;;;;5032055;28;20049;-64
2023/12/12 10:07:49;;;;;;;6.07;2.60;;;;;11.40;97512.00;;;;5033737;28;20400;-63
2023/12/12 10:10:26;;;;;;;4.60;2.30;;;;;11.40;97498.00;;;;5032641;28;20042;-64
2023/12/12 10:12:52;;;;;;;6.53;2.95;;;;;11.40;97505.00;;;;5032316;28;20067;-63
2023/12/12 10:15:25;;;;;;;4.32;2.28;;;;;11.30;97494.00;;;;5031762;28;20049;-64
2023/12/12 10:17:59;;;;;;;5.30;2.67;;;;;11.30;97487.00;;;;5033479;28;20514;-64
2023/12/12 10:20:27;;;;;;;6.30;2.30;;;;;11.30;97484.00;;;;5033624;28;20521;-64
2023/12/12 10:22:57;;;;;;;3.35;2.10;;;;;11.20;97475.00;;;;5033301;28;20061;-64
2023/12/12 10:25:24;;;;;;;4.72;2.10;;;;;11.20;97473.00;;;;5032587;28;20121;-64
2023/12/12 10:27:55;;;;;;;1.70;1.48;;;;;11.10;97453.00;;;;5031864;28;20606;-63
2023/12/12 10:30:22;;;;;;;4.15;2.00;;;;;11.10;97460.00;;;;5033332;28;20077;-64
2023/12/12 10:32:51;;;;;;;4.43;2.38;;;;;11.10;97460.00;;;;5031855;28;20045;-64
2023/12/12 10:35:23;;;;;;;4.30;2.45;;;;;11.10;97456.00;;;;5031240;28;20506;-64
2023/12/12 10:37:54;;;;;;;6.13;2.55;;;;;11.10;97458.00;;;;5033105;28;20099;-64
2023/12/12 10:40:22;;;;;;;4.82;2.40;;;;;11.20;97449.00;;;;5033356;28;20041;-63
2023/12/12 10:42:50;;;;;;;4.32;2.53;;;;;11.30;97440.00;;;;5032939;28;20049;-64
2023/12/12 10:45:17;;;;;;;4.43;2.33;;;;;11.30;97430.00;;;;5032317;28;20045;-64
2023/12/12 10:47:50;;;;;;;4.57;2.00;;;;;11.30;97424.00;;;;5031570;28;20057;-64
2023/12/12 10:50:18;;;;;;;4.10;2.60;;;;;11.30;97436.00;;;;5033027;28;20049;-64
2023/12/12 10:52:47;;;;;;;5.60;2.53;;;;;11.40;97423.00;;;;5032635;28;20042;-63
2023/12/12 10:55:15;;;;;;;2.85;1.95;;;;;11.40;97417.00;;;;5032181;28;20042;-63
2023/12/12 10:57:44;;;;;;;6.22;2.40;;;;;11.30;97416.00;;;;5032697;28;20522;-64
2023/12/12 11:00:12;;;;;;;3.95;2.20;;;;;11.30;97409.00;;;;5032705;28;20056;-64
2023/12/12 11:02:45;;;;;;;6.10;2.70;;;;;11.40;97414.00;;;;5032787;28;20049;-63
2023/12/12 11:05:13;;;;;;;3.55;2.20;;;;;11.50;97411.00;;;;5031900;28;20096;-63
2023/12/12 11:07:43;;;;;;;5.00;2.28;;;;;11.50;97408.00;;;;5031363;28;20473;-64
2023/12/12 11:10:13;;;;;;;3.40;1.92;;;;;11.50;97404.00;;;;5031371;28;20049;-62
2023/12/12 11:12:48;;;;;;;3.05;1.60;;;;;11.50;97404.00;;;;5031177;28;20044;-64
2023/12/12 11:15:17;;;;;;;3.25;2.00;;;;;11.50;97398.00;;;;5031114;28;20072;-64
2023/12/12 11:17:45;;;;;;;5.53;1.83;;;;;11.50;97390.00;;;;5032251;28;20139;-62
2023/12/12 11:20:16;;;;;;;7.03;1.77;;;;;11.70;97388.00;;;;5032473;28;20049;-62
2023/12/12 11:22:48;;;;;;;6.93;2.83;;;;;11.80;97385.00;;;;5032401;28;20041;-64
2023/12/12 11:25:19;;;;;;;4.13;2.90;;;;;11.90;97381.00;;;;5031812;28;20064;-62
2023/12/12 11:27:47;;;;;;;4.22;3.05;;;;;11.90;97377.00;;;;5032188;28;20128;-62
2023/12/12 11:30:18;;;;;;;4.20;2.80;;;;;12.00;97376.00;;;;5032176;28;20076;-62
2023/12/12 11:32:46;;;;;;;4.32;2.40;;;;;12.10;97360.00;;;;5032114;28;20045;-63
2023/12/12 11:35:31;;;;;;;3.38;2.60;;;;;12.20;97350.00;;;;5031720;28;20041;-64
2023/12/12 11:38:04;;;;;;;3.22;1.90;;;;;12.30;97341.00;;;;5031832;28;20111;-63
2023/12/12 11:40:37;;;;;;;2.97;2.50;;;;;12.30;97315.00;;;;5032292;28;20457;-64
2023/12/12 11:43:22;;;;;;;2.70;1.67;;;;;12.30;97290.00;;;;5032071;28;20116;-64
2023/12/12 11:45:49;;;;;;;3.88;2.10;;;;;12.30;97302.00;;;;5031889;28;20045;-64
2023/12/12 11:48:15;;;;;;;2.15;1.60;;;;;12.40;97294.00;;;;5032142;28;20064;-64
2023/12/12 11:50:42;;;;;;;2.92;1.90;;;;;12.60;97303.00;;;;5030782;28;20041;-64
2023/12/12 11:53:09;;;;;;;2.58;2.08;;;;;12.80;97309.00;;;;5031698;28;20513;-64
2023/12/12 11:55:42;;;;;;;4.43;1.90;;;;;13.00;97302.00;;;;5031366;28;20041;-63
2023/12/12 11:58:09;;;;;;;;;;;;;13.10;97320.00;;;;5031154;28;20073;-63
2023/12/12 12:00:40;;;;;;;1.98;1.60;;;;;13.00;97328.00;;;;5030696;28;19921;-64
2023/12/12 12:03:10;;;;;;;2.65;1.17;;;;;13.10;97319.00;;;;5030789;28;20102;-62
2023/12/12 12:05:37;;;;;;;1.88;1.50;;;;;13.10;97313.00;;;;5031166;28;20041;-62
2023/12/12 12:08:05;;;;;;;2.50;1.60;;;;;13.20;97311.00;;;;5031712;28;20050;-64
2023/12/12 12:10:31;;;;;;;2.42;1.40;;;;;13.20;97314.00;;;;5031669;28;20053;-61
2023/12/12 12:12:59;;;;;;;2.03;1.40;;;;;13.20;97318.00;;;;5031671;28;20045;-63